createdAt,value
2018-03-15T00:01:02.925Z,0.00
2018-03-15T00:02:08.900Z,0.00
2018-03-15T00:03:14.898Z,0.00
2018-03-15T00:04:20.900Z,0.00
2018-03-15T00:05:26.355Z,0.00
2018-03-15T00:06:32.349Z,0.00
2018-03-15T00:07:38.818Z,0.00
2018-03-15T00:08:44.789Z,0.00
2018-03-15T00:09:50.812Z,0.00
2018-03-15T00:10:56.755Z,0.00
2018-03-15T00:12:02.726Z,0.00
2018-03-15T00:13:08.722Z,0.00
2018-03-15T00:14:14.223Z,0.00
2018-03-15T00:15:20.675Z,0.00
2018-03-15T00:16:26.657Z,0.00
2018-03-15T00:17:32.150Z,0.00
2018-03-15T00:18:38.106Z,0.00
2018-03-15T00:19:44.120Z,0.00
2018-03-15T00:20:50.575Z,0.00
2018-03-15T00:21:56.559Z,0.00
2018-03-15T00:23:02.549Z,0.00
2018-03-15T00:24:08.552Z,0.00
2018-03-15T00:25:14.495Z,0.00
2018-03-15T00:26:20.489Z,0.00
2018-03-15T00:27:26.453Z,0.00
2018-03-15T00:28:32.457Z,0.00
2018-03-15T00:29:38.458Z,0.00
2018-03-15T00:30:44.408Z,0.00
2018-03-15T00:31:50.383Z,0.00
2018-03-15T00:32:56.388Z,0.00
2018-03-15T00:34:02.375Z,0.00
2018-03-15T00:35:08.346Z,0.00
2018-03-15T00:36:13.813Z,0.00
2018-03-15T00:37:19.795Z,0.00
2018-03-15T00:38:25.787Z,0.00
2018-03-15T00:39:31.778Z,0.00
2018-03-15T00:40:37.729Z,0.00
2018-03-15T00:41:44.191Z,0.00
2018-03-15T00:42:50.189Z,0.00
2018-03-15T00:43:56.191Z,0.00
2018-03-15T00:45:02.147Z,0.00
2018-03-15T00:46:07.623Z,0.00
2018-03-15T00:47:14.098Z,0.00
2018-03-15T00:48:20.053Z,0.00
2018-03-15T00:49:25.570Z,0.00
2018-03-15T00:50:31.527Z,0.00
2018-03-15T00:51:38.005Z,0.00
2018-03-15T00:52:43.975Z,0.00
2018-03-15T00:53:49.440Z,0.00
2018-03-15T00:54:55.959Z,0.00
2018-03-15T00:56:01.392Z,0.00
2018-03-15T00:57:07.936Z,0.00
2018-03-15T00:58:13.344Z,0.00
2018-03-15T00:59:19.836Z,0.00
2018-03-15T01:00:25.777Z,0.00
2018-03-15T01:01:31.278Z,0.00
2018-03-15T01:02:37.741Z,0.00
2018-03-15T01:03:43.714Z,0.00
2018-03-15T01:04:49.206Z,0.00
2018-03-15T01:05:55.647Z,0.00
2018-03-15T01:07:01.632Z,0.00
2018-03-15T01:08:07.094Z,0.00
2018-03-15T01:09:13.588Z,0.00
2018-03-15T01:10:19.560Z,0.00
2018-03-15T01:11:25.520Z,0.00
2018-03-15T01:12:30.987Z,0.00
2018-03-15T01:13:37.443Z,0.00
2018-03-15T01:14:42.953Z,0.00
2018-03-15T01:15:48.909Z,0.00
2018-03-15T01:16:55.377Z,0.00
2018-03-15T01:18:00.846Z,0.00
2018-03-15T01:19:07.827Z,0.00
2018-03-15T01:20:13.281Z,0.00
2018-03-15T01:21:18.762Z,0.00
2018-03-15T01:22:24.736Z,0.00
2018-03-15T01:23:30.691Z,0.00
2018-03-15T01:24:36.703Z,0.00
2018-03-15T01:25:43.149Z,0.00
2018-03-15T01:26:49.096Z,0.00
2018-03-15T01:27:55.072Z,0.00
2018-03-15T01:29:00.561Z,0.00
2018-03-15T01:30:06.532Z,0.00
2018-03-15T01:31:13.010Z,0.00
2018-03-15T01:32:18.466Z,0.00
2018-03-15T01:33:24.435Z,0.00
2018-03-15T01:34:30.410Z,0.00
2018-03-15T01:35:36.365Z,0.00
2018-03-15T01:36:42.329Z,0.00
2018-03-15T01:37:48.299Z,0.00
2018-03-15T01:38:55.758Z,0.00
2018-03-15T01:40:00.759Z,0.00
2018-03-15T01:41:06.202Z,0.00
2018-03-15T01:42:12.169Z,0.00
2018-03-15T01:43:18.156Z,0.00
2018-03-15T01:44:24.629Z,0.00
2018-03-15T01:45:30.590Z,0.00
2018-03-15T01:46:36.089Z,0.00
2018-03-15T01:47:42.013Z,0.00
2018-03-15T01:48:48.487Z,0.00
2018-03-15T01:49:53.984Z,0.00
2018-03-15T01:51:00.429Z,0.00
2018-03-15T01:52:05.897Z,0.00
2018-03-15T01:53:11.944Z,0.00
2018-03-15T01:54:17.953Z,0.00
2018-03-15T01:55:24.296Z,0.00
2018-03-15T01:56:30.299Z,0.00
2018-03-15T01:57:36.233Z,0.00
2018-03-15T01:58:42.207Z,0.00
2018-03-15T01:59:47.692Z,0.00
2018-03-15T02:00:54.133Z,0.00
2018-03-15T02:01:59.632Z,0.00
2018-03-15T02:03:05.563Z,0.00
2018-03-15T02:04:11.562Z,0.00
2018-03-15T02:05:17.501Z,0.00
2018-03-15T02:06:23.975Z,0.00
2018-03-15T02:07:29.443Z,0.00
2018-03-15T02:08:35.408Z,0.00
2018-03-15T02:09:41.974Z,0.00
2018-03-15T02:10:47.336Z,0.00
2018-03-15T02:11:53.313Z,0.00
2018-03-15T02:12:59.771Z,0.00
2018-03-15T02:14:05.725Z,0.00
2018-03-15T02:15:11.727Z,0.00
2018-03-15T02:16:17.675Z,0.00
2018-03-15T02:17:23.139Z,0.00
2018-03-15T02:18:29.603Z,0.00
2018-03-15T02:19:35.090Z,0.00
2018-03-15T02:20:41.527Z,0.00
2018-03-15T02:21:47.481Z,0.00
2018-03-15T02:22:53.457Z,0.00
2018-03-15T02:23:58.928Z,0.00
2018-03-15T02:25:04.905Z,0.00
2018-03-15T02:26:10.848Z,0.00
2018-03-15T02:27:16.806Z,0.00
2018-03-15T02:28:23.265Z,0.00
2018-03-15T02:29:29.261Z,0.00
2018-03-15T02:30:35.193Z,0.00
2018-03-15T02:31:41.167Z,0.00
2018-03-15T02:32:47.117Z,0.00
2018-03-15T02:33:52.573Z,0.00
2018-03-15T02:34:58.557Z,0.00
2018-03-15T02:36:04.506Z,0.00
2018-03-15T02:37:10.961Z,0.00
2018-03-15T02:38:17.418Z,0.00
2018-03-15T02:39:22.437Z,0.00
2018-03-15T02:40:28.350Z,0.00
2018-03-15T02:41:34.308Z,0.00
2018-03-15T02:42:40.272Z,0.00
2018-03-15T02:43:46.226Z,0.00
2018-03-15T02:44:52.708Z,0.00
2018-03-15T02:45:59.646Z,0.00
2018-03-15T02:47:04.617Z,0.00
2018-03-15T02:48:10.561Z,0.00
2018-03-15T02:49:16.030Z,0.00
2018-03-15T02:50:22.012Z,0.00
2018-03-15T02:51:28.435Z,0.00
2018-03-15T02:52:33.909Z,0.00
2018-03-15T02:53:40.374Z,0.00
2018-03-15T02:54:45.958Z,0.00
2018-03-15T02:55:52.286Z,0.00
2018-03-15T02:56:57.754Z,0.00
2018-03-15T02:58:03.706Z,0.00
2018-03-15T02:59:10.160Z,0.00
2018-03-15T03:00:15.667Z,0.00
2018-03-15T03:01:21.594Z,0.00
2018-03-15T03:02:27.551Z,0.00
2018-03-15T03:03:33.537Z,0.00
2018-03-15T03:04:39.514Z,0.00
2018-03-15T03:05:45.432Z,0.00
2018-03-15T03:06:51.950Z,0.00
2018-03-15T03:07:57.345Z,0.00
2018-03-15T03:09:03.302Z,0.00
2018-03-15T03:10:09.297Z,0.00
2018-03-15T03:11:15.433Z,0.00
2018-03-15T03:12:21.178Z,0.00
2018-03-15T03:13:27.636Z,0.00
2018-03-15T03:14:33.610Z,0.00
2018-03-15T03:15:39.045Z,0.00
2018-03-15T03:16:44.994Z,0.00
2018-03-15T03:17:51.454Z,0.00
2018-03-15T03:18:57.401Z,0.00
2018-03-15T03:20:02.907Z,0.00
2018-03-15T03:21:09.308Z,0.00
2018-03-15T03:22:14.773Z,0.00
2018-03-15T03:23:21.225Z,0.00
2018-03-15T03:24:26.689Z,0.00
2018-03-15T03:25:33.149Z,0.00
2018-03-15T03:26:38.591Z,0.00
2018-03-15T03:27:44.562Z,0.00
2018-03-15T03:28:50.489Z,0.00
2018-03-15T03:29:56.464Z,0.00
2018-03-15T03:31:02.892Z,0.00
2018-03-15T03:32:08.345Z,0.00
2018-03-15T03:33:14.300Z,0.00
2018-03-15T03:34:20.249Z,0.00
2018-03-15T03:35:26.223Z,0.00
2018-03-15T03:36:32.170Z,0.00
2018-03-15T03:37:38.095Z,0.00
2018-03-15T03:38:44.550Z,0.00
2018-03-15T03:39:50.516Z,0.00
2018-03-15T03:40:56.449Z,0.00
2018-03-15T03:42:01.904Z,0.00
2018-03-15T03:43:08.362Z,0.00
2018-03-15T03:44:13.808Z,0.00
2018-03-15T03:45:19.775Z,0.00
2018-03-15T03:46:26.209Z,0.00
2018-03-15T03:47:31.642Z,0.00
2018-03-15T03:48:38.100Z,0.00
2018-03-15T03:49:44.075Z,0.00
2018-03-15T03:50:49.991Z,0.00
2018-03-15T03:51:55.969Z,0.00
2018-03-15T03:53:01.400Z,0.00
2018-03-15T03:54:08.147Z,0.00
2018-03-15T03:55:14.314Z,0.00
2018-03-15T03:56:19.751Z,0.00
2018-03-15T03:57:25.202Z,0.00
2018-03-15T03:58:31.645Z,0.00
2018-03-15T03:59:37.107Z,0.00
2018-03-15T04:00:43.068Z,0.00
2018-03-15T04:01:49.497Z,0.00
2018-03-15T04:02:55.441Z,0.00
2018-03-15T04:04:01.386Z,0.00
2018-03-15T04:05:06.867Z,0.00
2018-03-15T04:06:13.291Z,0.00
2018-03-15T04:07:19.266Z,0.00
2018-03-15T04:08:25.208Z,0.00
2018-03-15T04:09:31.160Z,0.00
2018-03-15T04:10:37.118Z,0.00
2018-03-15T04:11:43.070Z,0.00
2018-03-15T04:12:49.021Z,0.00
2018-03-15T04:13:54.949Z,0.00
2018-03-15T04:15:00.432Z,0.00
2018-03-15T04:16:06.856Z,0.00
2018-03-15T04:17:12.321Z,0.00
2018-03-15T04:18:18.756Z,0.00
2018-03-15T04:19:24.258Z,0.00
2018-03-15T04:20:31.664Z,0.00
2018-03-15T04:21:36.612Z,0.00
2018-03-15T04:22:42.564Z,0.00
2018-03-15T04:23:48.529Z,0.00
2018-03-15T04:24:53.981Z,0.00
2018-03-15T04:26:00.910Z,0.00
2018-03-15T04:27:05.943Z,0.00
2018-03-15T04:28:12.308Z,0.00
2018-03-15T04:29:18.254Z,0.00
2018-03-15T04:30:24.228Z,0.00
2018-03-15T04:31:29.664Z,0.00
2018-03-15T04:32:36.114Z,0.00
2018-03-15T04:33:42.092Z,0.00
2018-03-15T04:34:48.045Z,0.00
2018-03-15T04:35:53.965Z,0.00
2018-03-15T04:36:59.934Z,0.00
2018-03-15T04:38:05.931Z,0.00
2018-03-15T04:39:11.828Z,0.00
2018-03-15T04:40:17.803Z,0.00
2018-03-15T04:41:23.721Z,0.00
2018-03-15T04:42:29.670Z,0.00
2018-03-15T04:43:35.113Z,0.00
2018-03-15T04:44:41.559Z,0.00
2018-03-15T04:45:47.540Z,0.00
2018-03-15T04:46:53.460Z,0.00
2018-03-15T04:47:59.407Z,0.00
2018-03-15T04:49:05.360Z,0.00
2018-03-15T04:50:11.331Z,0.00
2018-03-15T04:51:17.270Z,0.00
2018-03-15T04:52:23.214Z,0.00
2018-03-15T04:53:28.661Z,0.00
2018-03-15T04:54:34.644Z,0.00
2018-03-15T04:55:40.578Z,0.00
2018-03-15T04:56:46.529Z,0.00
2018-03-15T04:57:52.964Z,0.00
2018-03-15T04:58:58.904Z,0.00
2018-03-15T05:00:04.373Z,0.00
2018-03-15T05:01:10.800Z,0.00
2018-03-15T05:02:16.760Z,0.00
2018-03-15T05:03:22.691Z,0.00
2018-03-15T05:04:28.636Z,0.00
2018-03-15T05:05:34.634Z,0.00
2018-03-15T05:06:41.545Z,0.00
2018-03-15T05:07:46.504Z,0.00
2018-03-15T05:08:52.457Z,0.00
2018-03-15T05:09:58.416Z,0.00
2018-03-15T05:11:04.387Z,0.00
2018-03-15T05:12:10.302Z,0.00
2018-03-15T05:13:16.271Z,0.00
2018-03-15T05:14:22.215Z,0.00
2018-03-15T05:15:28.183Z,0.00
2018-03-15T05:16:33.664Z,0.00
2018-03-15T05:17:40.071Z,0.00
2018-03-15T05:18:46.036Z,0.00
2018-03-15T05:19:52.010Z,0.00
2018-03-15T05:20:57.955Z,0.00
2018-03-15T05:22:03.928Z,0.00
2018-03-15T05:23:09.927Z,0.00
2018-03-15T05:24:15.833Z,0.00
2018-03-15T05:25:21.783Z,0.00
2018-03-15T05:26:27.708Z,0.00
2018-03-15T05:27:33.683Z,0.00
2018-03-15T05:28:39.627Z,0.00
2018-03-15T05:29:45.603Z,0.00
2018-03-15T05:30:51.574Z,0.00
2018-03-15T05:31:57.529Z,0.00
2018-03-15T05:33:03.480Z,5.63
2018-03-15T05:34:09.461Z,5.63
2018-03-15T05:35:15.443Z,5.63
2018-03-15T05:36:21.383Z,5.63
2018-03-15T05:37:27.343Z,5.63
2018-03-15T05:38:33.320Z,5.63
2018-03-15T05:39:39.289Z,5.63
2018-03-15T05:40:44.805Z,11.25
2018-03-15T05:41:51.234Z,11.25
2018-03-15T05:42:57.210Z,11.25
2018-03-15T05:44:03.206Z,11.25
2018-03-15T05:45:09.201Z,11.25
2018-03-15T05:46:15.135Z,16.88
2018-03-15T05:47:21.096Z,16.88
2018-03-15T05:48:27.095Z,16.88
2018-03-15T05:49:33.062Z,16.88
2018-03-15T05:50:39.045Z,22.50
2018-03-15T05:51:45.054Z,22.50
2018-03-15T05:52:50.987Z,22.50
2018-03-15T05:53:56.978Z,22.50
2018-03-15T05:55:02.444Z,28.13
2018-03-15T05:56:08.973Z,28.13
2018-03-15T05:57:14.904Z,28.13
2018-03-15T05:58:20.895Z,33.75
2018-03-15T05:59:26.893Z,33.75
2018-03-15T06:00:33.401Z,33.75
2018-03-15T06:01:39.721Z,33.75
2018-03-15T06:02:44.825Z,39.38
2018-03-15T06:03:50.322Z,39.38
2018-03-15T06:04:56.328Z,39.38
2018-03-15T06:06:02.311Z,45.00
2018-03-15T06:07:08.297Z,45.00
2018-03-15T06:08:14.757Z,45.00
2018-03-15T06:09:20.742Z,50.63
2018-03-15T06:10:26.759Z,50.63
2018-03-15T06:11:32.726Z,50.63
2018-03-15T06:12:38.222Z,56.25
2018-03-15T06:13:44.203Z,56.25
2018-03-15T06:14:50.697Z,56.25
2018-03-15T06:15:56.706Z,61.88
2018-03-15T06:17:02.695Z,61.88
2018-03-15T06:18:08.683Z,67.50
2018-03-15T06:19:15.722Z,67.50
2018-03-15T06:20:20.703Z,67.50
2018-03-15T06:21:26.522Z,73.13
2018-03-15T06:22:32.781Z,73.13
2018-03-15T06:23:38.772Z,78.75
2018-03-15T06:24:44.668Z,78.75
2018-03-15T06:25:50.710Z,78.75
2018-03-15T06:26:56.682Z,84.38
2018-03-15T06:28:02.679Z,84.38
2018-03-15T06:29:08.188Z,90.00
2018-03-15T06:30:14.711Z,90.00
2018-03-15T06:31:20.709Z,90.00
2018-03-15T06:32:26.765Z,95.63
2018-03-15T06:33:32.718Z,95.63
2018-03-15T06:34:38.708Z,95.63
2018-03-15T06:35:44.255Z,95.63
2018-03-15T06:36:50.733Z,101.25
2018-03-15T06:37:56.744Z,101.25
2018-03-15T06:39:02.762Z,101.25
2018-03-15T06:40:08.804Z,101.25
2018-03-15T06:41:14.813Z,106.88
2018-03-15T06:42:20.810Z,106.88
2018-03-15T06:43:26.824Z,106.88
2018-03-15T06:44:32.854Z,106.88
2018-03-15T06:45:38.912Z,106.88
2018-03-15T06:46:44.888Z,106.88
2018-03-15T06:47:50.913Z,106.88
2018-03-15T06:48:56.930Z,106.88
2018-03-15T06:50:02.965Z,106.88
2018-03-15T06:51:08.999Z,106.88
2018-03-15T06:52:15.003Z,106.88
2018-03-15T06:53:21.033Z,101.25
2018-03-15T06:54:27.088Z,101.25
2018-03-15T06:55:33.422Z,101.25
2018-03-15T06:56:39.099Z,106.88
2018-03-15T06:57:45.131Z,106.88
2018-03-15T06:58:51.165Z,106.88
2018-03-15T06:59:57.216Z,101.25
2018-03-15T07:01:03.256Z,101.25
2018-03-15T07:02:08.765Z,101.25
2018-03-15T07:03:14.816Z,101.25
2018-03-15T07:04:21.317Z,106.88
2018-03-15T07:05:27.378Z,106.88
2018-03-15T07:06:33.388Z,106.88
2018-03-15T07:07:39.433Z,112.50
2018-03-15T07:08:45.468Z,118.13
2018-03-15T07:09:51.509Z,123.75
2018-03-15T07:10:57.564Z,129.38
2018-03-15T07:12:03.570Z,129.38
2018-03-15T07:13:09.624Z,135.00
2018-03-15T07:14:15.659Z,140.63
2018-03-15T07:15:21.203Z,140.63
2018-03-15T07:16:27.763Z,146.25
2018-03-15T07:17:33.792Z,151.88
2018-03-15T07:18:39.823Z,146.25
2018-03-15T07:19:45.947Z,151.88
2018-03-15T07:20:51.959Z,157.50
2018-03-15T07:21:57.505Z,157.50
2018-03-15T07:23:04.071Z,157.50
2018-03-15T07:24:10.085Z,163.13
2018-03-15T07:25:16.123Z,157.50
2018-03-15T07:26:22.202Z,151.88
2018-03-15T07:27:28.221Z,151.88
2018-03-15T07:28:34.272Z,151.88
2018-03-15T07:29:40.358Z,151.88
2018-03-15T07:30:45.900Z,157.50
2018-03-15T07:31:52.442Z,157.50
2018-03-15T07:32:57.989Z,157.50
2018-03-15T07:34:04.536Z,157.50
2018-03-15T07:35:10.121Z,163.13
2018-03-15T07:36:16.674Z,157.50
2018-03-15T07:37:22.732Z,157.50
2018-03-15T07:38:28.766Z,151.88
2018-03-15T07:39:35.825Z,146.25
2018-03-15T07:40:40.416Z,146.25
2018-03-15T07:41:46.956Z,146.25
2018-03-15T07:42:54.008Z,151.88
2018-03-15T07:43:59.073Z,151.88
2018-03-15T07:45:05.121Z,157.50
2018-03-15T07:46:11.203Z,157.50
2018-03-15T07:47:16.754Z,163.13
2018-03-15T07:48:22.836Z,163.13
2018-03-15T07:49:29.378Z,163.13
2018-03-15T07:50:34.978Z,163.13
2018-03-15T07:51:41.514Z,163.13
2018-03-15T07:52:47.926Z,163.13
2018-03-15T07:53:53.148Z,163.13
2018-03-15T07:54:59.707Z,168.75
2018-03-15T07:56:05.790Z,168.75
2018-03-15T07:57:11.932Z,168.75
2018-03-15T07:58:17.925Z,168.75
2018-03-15T07:59:23.504Z,174.38
2018-03-15T08:00:29.568Z,174.38
2018-03-15T08:01:36.159Z,174.38
2018-03-15T08:02:42.204Z,174.38
2018-03-15T08:03:48.302Z,180.00
2018-03-15T08:04:54.381Z,180.00
2018-03-15T08:06:00.267Z,180.00
2018-03-15T08:07:06.034Z,180.00
2018-03-15T08:08:12.596Z,185.63
2018-03-15T08:09:18.750Z,185.63
2018-03-15T08:10:24.272Z,191.25
2018-03-15T08:11:30.897Z,191.25
2018-03-15T08:12:36.933Z,196.88
2018-03-15T08:13:44.038Z,196.88
2018-03-15T08:14:49.133Z,202.50
2018-03-15T08:15:55.229Z,202.50
2018-03-15T08:17:01.300Z,202.50
2018-03-15T08:18:08.406Z,208.13
2018-03-15T08:19:13.509Z,208.13
2018-03-15T08:20:19.591Z,213.75
2018-03-15T08:21:25.702Z,213.75
2018-03-15T08:22:32.785Z,219.38
2018-03-15T08:23:37.991Z,225.00
2018-03-15T08:24:44.006Z,230.63
2018-03-15T08:25:50.151Z,230.63
2018-03-15T08:26:56.229Z,230.63
2018-03-15T08:28:02.342Z,230.63
2018-03-15T08:29:08.487Z,236.25
2018-03-15T08:30:14.605Z,236.25
2018-03-15T08:31:21.251Z,241.88
2018-03-15T08:32:26.869Z,241.88
2018-03-15T08:33:32.505Z,247.50
2018-03-15T08:34:39.142Z,247.50
2018-03-15T08:35:45.320Z,253.13
2018-03-15T08:36:51.449Z,253.13
2018-03-15T08:37:57.588Z,253.13
2018-03-15T08:39:03.741Z,258.75
2018-03-15T08:40:09.960Z,258.75
2018-03-15T08:41:15.596Z,264.38
2018-03-15T08:42:21.685Z,270.00
2018-03-15T08:43:27.932Z,270.00
2018-03-15T08:44:34.020Z,270.00
2018-03-15T08:45:40.658Z,275.63
2018-03-15T08:46:46.352Z,275.63
2018-03-15T08:47:52.979Z,281.25
2018-03-15T08:48:59.163Z,281.25
2018-03-15T08:50:04.835Z,281.25
2018-03-15T08:51:11.017Z,281.25
2018-03-15T08:52:17.665Z,281.25
2018-03-15T08:53:23.830Z,281.25
2018-03-15T08:54:29.516Z,275.63
2018-03-15T08:55:36.195Z,275.63
2018-03-15T08:56:42.896Z,275.63
2018-03-15T08:57:48.047Z,270.00
2018-03-15T08:58:54.731Z,270.00
2018-03-15T09:00:00.929Z,275.63
2018-03-15T09:01:07.128Z,281.25
2018-03-15T09:02:12.842Z,281.25
2018-03-15T09:03:18.992Z,286.88
2018-03-15T09:04:25.412Z,286.88
2018-03-15T09:05:31.951Z,286.88
2018-03-15T09:06:38.081Z,286.88
2018-03-15T09:07:44.308Z,281.25
2018-03-15T09:08:50.524Z,286.88
2018-03-15T09:09:56.172Z,286.88
2018-03-15T09:11:02.411Z,281.25
2018-03-15T09:12:10.068Z,286.88
2018-03-15T09:13:15.275Z,292.50
2018-03-15T09:14:22.007Z,298.13
2018-03-15T09:15:27.720Z,303.75
2018-03-15T09:16:33.952Z,309.38
2018-03-15T09:17:39.656Z,315.00
2018-03-15T09:18:46.380Z,320.63
2018-03-15T09:19:52.642Z,331.88
2018-03-15T09:20:58.348Z,337.50
2018-03-15T09:22:05.082Z,343.13
2018-03-15T09:23:11.292Z,343.13
2018-03-15T09:24:17.520Z,348.75
2018-03-15T09:25:23.762Z,354.38
2018-03-15T09:26:29.582Z,360.00
2018-03-15T09:27:35.752Z,360.00
2018-03-15T09:28:42.493Z,371.25
2018-03-15T09:29:48.265Z,376.88
2018-03-15T09:30:55.000Z,382.50
2018-03-15T09:32:00.775Z,393.75
2018-03-15T09:33:07.030Z,393.75
2018-03-15T09:34:13.267Z,393.75
2018-03-15T09:35:20.017Z,393.75
2018-03-15T09:36:25.815Z,399.38
2018-03-15T09:37:32.058Z,405.00
2018-03-15T09:38:38.332Z,410.63
2018-03-15T09:39:44.619Z,410.63
2018-03-15T09:40:50.874Z,416.25
2018-03-15T09:41:57.174Z,421.88
2018-03-15T09:43:03.427Z,427.50
2018-03-15T09:44:10.212Z,427.50
2018-03-15T09:45:16.497Z,427.50
2018-03-15T09:46:22.303Z,427.50
2018-03-15T09:47:29.072Z,427.50
2018-03-15T09:48:35.369Z,427.50
2018-03-15T09:49:41.159Z,433.13
2018-03-15T09:50:47.955Z,438.75
2018-03-15T09:51:54.266Z,433.13
2018-03-15T09:53:00.048Z,410.63
2018-03-15T09:54:06.848Z,410.63
2018-03-15T09:55:12.685Z,410.63
2018-03-15T09:56:18.969Z,410.63
2018-03-15T09:57:25.752Z,399.38
2018-03-15T09:58:31.567Z,399.38
2018-03-15T09:59:38.349Z,388.13
2018-03-15T10:00:44.176Z,399.38
2018-03-15T10:01:51.008Z,399.38
2018-03-15T10:02:57.276Z,399.38
2018-03-15T10:04:03.132Z,405.00
2018-03-15T10:05:09.953Z,399.38
2018-03-15T10:06:15.760Z,399.38
2018-03-15T10:07:22.054Z,399.38
2018-03-15T10:08:28.370Z,393.75
2018-03-15T10:09:35.207Z,388.13
2018-03-15T10:10:41.491Z,388.13
2018-03-15T10:11:47.337Z,388.13
2018-03-15T10:12:54.135Z,388.13
2018-03-15T10:13:59.962Z,382.50
2018-03-15T10:15:06.778Z,376.88
2018-03-15T10:16:13.143Z,371.25
2018-03-15T10:17:19.418Z,371.25
2018-03-15T10:18:25.751Z,365.63
2018-03-15T10:19:32.080Z,365.63
2018-03-15T10:20:38.397Z,360.00
2018-03-15T10:21:44.263Z,354.38
2018-03-15T10:22:50.553Z,348.75
2018-03-15T10:23:57.184Z,348.75
2018-03-15T10:25:13.608Z,348.75
2018-03-15T10:26:10.030Z,348.75
2018-03-15T10:27:16.396Z,354.38
2018-03-15T10:28:22.171Z,360.00
2018-03-15T10:29:29.009Z,360.00
2018-03-15T10:30:34.858Z,360.00
2018-03-15T10:31:41.195Z,365.63
2018-03-15T10:32:47.987Z,360.00
2018-03-15T10:33:54.329Z,360.00
2018-03-15T10:35:00.169Z,365.63
2018-03-15T10:36:06.517Z,371.25
2018-03-15T10:37:14.497Z,382.50
2018-03-15T10:38:19.185Z,388.13
2018-03-15T10:39:25.538Z,399.38
2018-03-15T10:40:32.373Z,405.00
2018-03-15T10:41:38.244Z,410.63
2018-03-15T10:42:45.080Z,416.25
2018-03-15T10:43:51.429Z,421.88
2018-03-15T10:44:57.291Z,427.50
2018-03-15T10:46:04.122Z,433.13
2018-03-15T10:47:10.962Z,450.00
2018-03-15T10:48:16.854Z,461.25
2018-03-15T10:49:22.731Z,478.13
2018-03-15T10:50:29.581Z,483.75
2018-03-15T10:51:35.977Z,489.38
2018-03-15T10:52:42.313Z,495.00
2018-03-15T10:53:48.215Z,500.63
2018-03-15T10:54:54.605Z,500.63
2018-03-15T10:56:01.476Z,500.63
2018-03-15T10:57:07.387Z,489.38
2018-03-15T10:58:14.259Z,483.75
2018-03-15T10:59:20.346Z,478.13
2018-03-15T11:00:28.029Z,478.13
2018-03-15T11:01:32.958Z,478.13
2018-03-15T11:02:39.334Z,466.88
2018-03-15T11:03:45.729Z,466.88
2018-03-15T11:04:52.114Z,461.25
2018-03-15T11:05:58.504Z,455.63
2018-03-15T11:07:05.420Z,450.00
2018-03-15T11:08:11.788Z,438.75
2018-03-15T11:09:17.686Z,438.75
2018-03-15T11:10:24.582Z,433.13
2018-03-15T11:11:30.986Z,433.13
2018-03-15T11:12:38.367Z,427.50
2018-03-15T11:13:43.264Z,433.13
2018-03-15T11:14:50.159Z,444.38
2018-03-15T11:15:56.582Z,438.75
2018-03-15T11:17:02.993Z,433.13
2018-03-15T11:18:09.394Z,433.13
2018-03-15T11:19:15.762Z,444.38
2018-03-15T11:20:21.681Z,438.75
2018-03-15T11:21:28.560Z,438.75
2018-03-15T11:22:35.044Z,421.88
2018-03-15T11:23:40.885Z,438.75
2018-03-15T11:24:47.290Z,444.38
2018-03-15T11:25:53.686Z,455.63
2018-03-15T11:27:00.129Z,461.25
2018-03-15T11:28:06.525Z,466.88
2018-03-15T11:29:12.942Z,472.50
2018-03-15T11:30:19.371Z,483.75
2018-03-15T11:31:26.288Z,489.38
2018-03-15T11:32:32.739Z,489.38
2018-03-15T11:33:39.156Z,495.00
2018-03-15T11:34:45.610Z,495.00
2018-03-15T11:35:52.044Z,506.25
2018-03-15T11:36:58.011Z,517.50
2018-03-15T11:38:04.442Z,517.50
2018-03-15T11:39:10.912Z,528.75
2018-03-15T11:40:17.923Z,534.38
2018-03-15T11:41:24.332Z,551.25
2018-03-15T11:42:30.849Z,551.25
2018-03-15T11:43:36.822Z,573.75
2018-03-15T11:44:43.350Z,613.13
2018-03-15T11:45:49.881Z,646.88
2018-03-15T11:46:56.644Z,675.00
2018-03-15T11:48:03.004Z,686.25
2018-03-15T11:49:09.599Z,691.88
2018-03-15T11:50:16.223Z,686.25
2018-03-15T11:51:22.846Z,691.88
2018-03-15T11:52:30.014Z,680.63
2018-03-15T11:53:36.153Z,697.50
2018-03-15T11:54:42.838Z,652.50
2018-03-15T11:55:49.519Z,652.50
2018-03-15T11:56:56.253Z,652.50
2018-03-15T11:58:02.915Z,641.25
2018-03-15T11:59:09.639Z,624.38
2018-03-15T12:00:16.361Z,607.50
2018-03-15T12:01:24.083Z,573.75
2018-03-15T12:02:30.326Z,556.88
2018-03-15T12:03:36.554Z,534.38
2018-03-15T12:04:43.272Z,517.50
2018-03-15T12:05:49.973Z,495.00
2018-03-15T12:06:56.713Z,495.00
2018-03-15T12:08:03.925Z,495.00
2018-03-15T12:09:10.558Z,489.38
2018-03-15T12:10:16.764Z,500.63
2018-03-15T12:11:23.445Z,511.88
2018-03-15T12:12:30.144Z,534.38
2018-03-15T12:13:36.800Z,534.38
2018-03-15T12:14:43.478Z,534.38
2018-03-15T12:15:50.140Z,540.00
2018-03-15T12:16:56.836Z,562.50
2018-03-15T12:18:03.480Z,551.25
2018-03-15T12:19:10.126Z,568.13
2018-03-15T12:20:16.783Z,585.00
2018-03-15T12:21:23.436Z,590.63
2018-03-15T12:22:30.105Z,607.50
2018-03-15T12:23:36.727Z,613.13
2018-03-15T12:24:43.365Z,624.38
2018-03-15T12:25:50.005Z,641.25
2018-03-15T12:26:56.689Z,646.88
2018-03-15T12:28:03.293Z,658.13
2018-03-15T12:29:09.929Z,663.75
2018-03-15T12:30:17.064Z,675.00
2018-03-15T12:31:23.210Z,669.38
2018-03-15T12:32:30.386Z,675.00
2018-03-15T12:33:36.973Z,680.63
2018-03-15T12:34:43.129Z,669.38
2018-03-15T12:35:49.760Z,663.75
2018-03-15T12:36:56.883Z,652.50
2018-03-15T12:38:03.494Z,646.88
2018-03-15T12:39:09.616Z,635.63
2018-03-15T12:40:16.241Z,630.00
2018-03-15T12:41:22.845Z,635.63
2018-03-15T12:42:29.979Z,624.38
2018-03-15T12:43:36.074Z,618.75
2018-03-15T12:44:43.161Z,618.75
2018-03-15T12:45:49.279Z,624.38
2018-03-15T12:46:55.979Z,630.00
2018-03-15T12:48:02.471Z,641.25
2018-03-15T12:49:09.066Z,646.88
2018-03-15T12:50:16.156Z,663.75
2018-03-15T12:51:22.251Z,669.38
2018-03-15T12:52:29.359Z,680.63
2018-03-15T12:53:35.450Z,686.25
2018-03-15T12:54:42.048Z,691.88
2018-03-15T12:55:48.673Z,697.50
2018-03-15T12:56:55.279Z,708.75
2018-03-15T12:58:02.370Z,714.38
2018-03-15T12:59:08.481Z,708.75
2018-03-15T13:00:15.092Z,708.75
2018-03-15T13:01:22.200Z,697.50
2018-03-15T13:02:28.852Z,691.88
2018-03-15T13:03:34.986Z,680.63
2018-03-15T13:04:42.563Z,675.00
2018-03-15T13:05:48.667Z,669.38
2018-03-15T13:06:55.303Z,658.13
2018-03-15T13:08:01.428Z,652.50
2018-03-15T13:09:08.006Z,641.25
2018-03-15T13:10:14.598Z,641.25
2018-03-15T13:11:21.205Z,641.25
2018-03-15T13:12:27.810Z,635.63
2018-03-15T13:13:34.936Z,630.00
2018-03-15T13:14:40.989Z,624.38
2018-03-15T13:15:47.580Z,624.38
2018-03-15T13:16:54.661Z,624.38
2018-03-15T13:18:00.904Z,630.00
2018-03-15T13:19:07.349Z,630.00
2018-03-15T13:20:13.938Z,635.63
2018-03-15T13:21:21.517Z,646.88
2018-03-15T13:22:27.153Z,658.13
2018-03-15T13:23:33.688Z,658.13
2018-03-15T13:24:40.383Z,663.75
2018-03-15T13:25:46.877Z,663.75
2018-03-15T13:26:54.013Z,663.75
2018-03-15T13:28:00.577Z,658.13
2018-03-15T13:29:06.650Z,663.75
2018-03-15T13:30:13.252Z,652.50
2018-03-15T13:31:20.306Z,652.50
2018-03-15T13:32:26.916Z,635.63
2018-03-15T13:33:33.052Z,624.38
2018-03-15T13:34:39.532Z,613.13
2018-03-15T13:35:46.098Z,601.88
2018-03-15T13:36:52.693Z,590.63
2018-03-15T13:37:59.730Z,585.00
2018-03-15T13:39:06.279Z,579.38
2018-03-15T13:40:12.360Z,579.38
2018-03-15T13:41:19.381Z,573.75
2018-03-15T13:42:25.949Z,573.75
2018-03-15T13:43:31.966Z,568.13
2018-03-15T13:44:38.517Z,562.50
2018-03-15T13:45:45.554Z,562.50
2018-03-15T13:46:52.089Z,568.13
2018-03-15T13:47:58.633Z,568.13
2018-03-15T13:49:05.204Z,568.13
2018-03-15T13:50:11.181Z,568.13
2018-03-15T13:51:18.197Z,562.50
2018-03-15T13:52:24.251Z,568.13
2018-03-15T13:53:30.762Z,573.75
2018-03-15T13:54:38.279Z,568.13
2018-03-15T13:55:43.796Z,562.50
2018-03-15T13:56:50.822Z,556.88
2018-03-15T13:57:56.864Z,545.63
2018-03-15T13:59:03.931Z,540.00
2018-03-15T14:00:10.379Z,540.00
2018-03-15T14:01:16.413Z,534.38
2018-03-15T14:02:22.929Z,528.75
2018-03-15T14:03:29.929Z,528.75
2018-03-15T14:04:35.930Z,517.50
2018-03-15T14:05:42.432Z,511.88
2018-03-15T14:06:48.934Z,500.63
2018-03-15T14:07:55.461Z,495.00
2018-03-15T14:09:01.926Z,483.75